Dipper Harbour West, Canada
Current Conditions -  °F | °C
As of 6:00 AM on Sunday 26 Oct 2014 (Local Time) from CYSJ Reporting Station
Overcast Overcast  
Wind Chill: 39°   Ceiling: 6900
Heat Index: 45°   Visibility: 15mi
Dew Point: 45°   Wind: 10mph
Humidity: 100%   Direction: 120°ESE
Pressure: 29.44"   Gusts: NA
Location:  45.09°N, 66.44°W
Report Text: CYSJ 260900Z 12009KT 15SM BKN069 OVC097 07/07 A2944 RMK AC5AC3 SLP973
Loading
Personal Weather Stations






























Interactive Weather Map
Tropical Storm Tracking
New forecast layout! Learn more

10-Day Weather Forecast

Advertisements
Track Severe Weather on mobile